Time;durP1;ratioP1;P1;durP2;ratioP2;P2;SDS_P1;SDS_P2;PMS_P1;PMS_P2;Temp;Humidity;BMP_temperature;BMP_pressure;BME280_temperature;BME280_humidity;BME280_pressure;Samples;Min_cycle;Max_cycle;Signal;HPM_P1;HPM_P2
2022/10/09 00:00:24;;;;;;;9.10;5.03;;;4.80;99.90;;;;;;5053368;28;20102;-78
2022/10/09 00:02:49;;;;;;;8.00;4.97;;;4.80;99.90;;;;;;5047459;28;20040;-77
2022/10/09 00:05:17;;;;;;;7.70;5.03;;;4.70;99.90;;;;;;5053567;28;20037;-77
2022/10/09 00:07:52;;;;;;;7.53;4.33;;;4.70;99.90;;;;;;5060006;28;20029;-78
2022/10/09 00:10:18;;;;;;;9.33;5.30;;;4.70;99.90;;;;;;5064846;28;20028;-77
2022/10/09 00:12:44;;;;;;;8.90;5.23;;;4.70;99.90;;;;;;5043530;28;20029;-78
2022/10/09 00:15:10;;;;;;;11.53;5.40;;;4.60;99.90;;;;;;5046533;28;20028;-77
2022/10/09 00:17:36;;;;;;;9.93;5.30;;;4.50;99.90;;;;;;5060434;28;20028;-78
2022/10/09 00:20:02;;;;;;;12.07;5.70;;;4.50;99.90;;;;;;5060750;28;20025;-77
2022/10/09 00:22:27;;;;;;;8.97;5.00;;;4.50;99.90;;;;;;5087892;28;20032;-78
2022/10/09 00:24:53;;;;;;;8.00;5.03;;;4.50;99.90;;;;;;5058481;28;20040;-77
2022/10/09 00:27:23;;;;;;;8.37;5.20;;;4.50;99.90;;;;;;5074606;28;20107;-77
2022/10/09 00:29:51;;;;;;;10.77;5.47;;;4.50;99.90;;;;;;5077812;28;20028;-78
2022/10/09 00:32:17;;;;;;;9.27;5.27;;;4.40;99.90;;;;;;5060304;28;20040;-78
2022/10/09 00:34:45;;;;;;;9.30;5.30;;;4.50;99.90;;;;;;5069575;28;20029;-78
2022/10/09 00:37:13;;;;;;;13.27;5.63;;;4.50;99.90;;;;;;5060051;28;20033;-78
2022/10/09 00:39:39;;;;;;;10.67;6.33;;;4.40;99.90;;;;;;5078014;28;20445;-76
2022/10/09 00:42:05;;;;;;;12.07;5.67;;;4.40;99.90;;;;;;5059820;28;20033;-78
2022/10/09 00:44:58;;;;;;;11.40;5.43;;;4.40;99.90;;;;;;5077646;28;20029;-78
2022/10/09 00:47:41;;;;;;;11.00;5.93;;;4.40;99.90;;;;;;5060154;28;20086;-78
2022/10/09 00:50:16;;;;;;;9.50;5.70;;;4.40;99.90;;;;;;5057971;28;20445;-79
2022/10/09 00:52:43;;;;;;;10.73;5.40;;;4.40;99.90;;;;;;5058827;28;20452;-78
2022/10/09 00:55:10;;;;;;;11.27;5.97;;;4.30;99.90;;;;;;5070477;28;20020;-78
2022/10/09 00:57:39;;;;;;;13.63;6.33;;;4.30;99.90;;;;;;5050989;28;20423;-79
2022/10/09 01:00:07;;;;;;;9.63;4.97;;;4.30;99.90;;;;;;5064634;28;20033;-76
2022/10/09 01:02:33;;;;;;;7.13;4.70;;;4.20;99.90;;;;;;5045815;28;20038;-77
2022/10/09 01:04:59;;;;;;;7.57;5.50;;;4.20;99.90;;;;;;5077411;28;20426;-78
2022/10/09 01:07:38;;;;;;;10.73;4.73;;;4.40;99.90;;;;;;5077219;28;20025;-77
2022/10/09 01:10:25;;;;;;;7.77;5.10;;;4.50;99.90;;;;;;5059615;28;20438;-77
2022/10/09 01:13:00;;;;;;;10.57;5.43;;;4.40;99.90;;;;;;5050049;28;20113;-78
2022/10/09 01:15:51;;;;;;;11.83;5.37;;;4.30;99.90;;;;;;5057205;28;21419;-78
2022/10/09 01:18:21;;;;;;;10.70;4.60;;;4.30;99.90;;;;;;5048582;28;20119;-77
2022/10/09 01:21:17;;;;;;;11.33;5.37;;;4.20;99.90;;;;;;5057562;28;20070;-78
2022/10/09 01:24:22;;;;;;;13.20;5.80;;;4.10;99.90;;;;;;5064540;28;20025;-79
2022/10/09 01:27:33;;;;;;;13.10;6.10;;;4.00;99.90;;;;;;5069459;28;20028;-79
2022/10/09 01:30:03;;;;;;;10.83;5.97;;;4.00;99.90;;;;;;5045545;28;20127;-76
2022/10/09 01:32:35;;;;;;;10.87;5.63;;;4.00;99.90;;;;;;5075597;28;20042;-77
2022/10/09 01:35:01;;;;;;;10.80;5.05;;;4.00;99.90;;;;;;5059850;28;20058;-76
2022/10/09 01:37:30;;;;;;;9.17;5.00;;;4.00;99.90;;;;;;5050592;28;20048;-76
2022/10/09 01:39:59;;;;;;;10.67;6.30;;;4.00;99.90;;;;;;5052821;28;20033;-76
2022/10/09 01:42:27;;;;;;;11.33;5.70;;;3.90;99.90;;;;;;5053595;28;20031;-76
2022/10/09 01:44:55;;;;;;;12.60;6.40;;;3.90;99.90;;;;;;5054658;28;20118;-77
2022/10/09 01:47:21;;;;;;;12.00;5.97;;;3.90;99.90;;;;;;5053516;28;20028;-78
2022/10/09 01:50:08;;;;;;;8.60;5.50;;;4.00;99.90;;;;;;5071155;28;20032;-77
2022/10/09 01:52:52;;;;;;;12.43;6.00;;;4.00;99.90;;;;;;5053511;28;20036;-76
2022/10/09 01:55:38;;;;;;;9.53;5.83;;;3.90;99.90;;;;;;5052772;28;20365;-76
2022/10/09 01:58:22;;;;;;;10.07;5.73;;;3.90;99.90;;;;;;5073185;28;20607;-78
2022/10/09 02:00:56;;;;;;;10.63;5.43;;;3.90;99.90;;;;;;5071070;28;20453;-77
2022/10/09 02:03:25;;;;;;;9.97;6.17;;;3.80;99.90;;;;;;5072696;28;20051;-78
2022/10/09 02:05:52;;;;;;;10.10;6.17;;;3.80;99.90;;;;;;5072390;28;20036;-76
2022/10/09 02:08:19;;;;;;;11.70;6.17;;;3.80;99.90;;;;;;5053457;28;20403;-76
2022/10/09 02:10:48;;;;;;;9.10;5.27;;;3.80;99.90;;;;;;5053555;28;20063;-76
2022/10/09 02:13:17;;;;;;;11.70;5.60;;;3.70;99.90;;;;;;5052715;28;20444;-76
2022/10/09 02:15:50;;;;;;;9.10;5.97;;;3.70;99.90;;;;;;5053285;28;20119;-77
2022/10/09 02:18:25;;;;;;;11.50;5.77;;;3.70;99.90;;;;;;5052490;28;20033;-76
2022/10/09 02:20:55;;;;;;;12.13;5.93;;;3.70;99.90;;;;;;5052645;28;20036;-78
2022/10/09 02:23:23;;;;;;;10.60;6.07;;;3.60;99.90;;;;;;5052875;28;21634;-77
2022/10/09 02:25:49;;;;;;;13.77;5.80;;;3.70;99.90;;;;;;5070610;28;20063;-78
2022/10/09 02:28:15;;;;;;;12.23;6.13;;;3.70;99.90;;;;;;5070804;28;20126;-77
2022/10/09 02:30:54;;;;;;;9.90;6.30;;;3.60;99.90;;;;;;5051691;28;20115;-74
2022/10/09 02:33:26;;;;;;;13.30;6.77;;;3.60;99.90;;;;;;5068944;28;20112;-77
2022/10/09 02:35:51;;;;;;;12.93;7.07;;;3.60;99.90;;;;;;5052836;28;20056;-77
2022/10/09 02:38:17;;;;;;;13.03;7.13;;;3.60;99.90;;;;;;5052930;28;20361;-77
2022/10/09 02:40:42;;;;;;;14.03;7.23;;;3.60;99.90;;;;;;5052203;28;20034;-77
2022/10/09 02:43:10;;;;;;;12.90;7.30;;;3.60;99.90;;;;;;5052344;28;20445;-76
2022/10/09 02:45:36;;;;;;;12.53;7.40;;;3.70;99.90;;;;;;5070532;28;20111;-78
2022/10/09 02:48:06;;;;;;;10.57;6.87;;;3.70;99.90;;;;;;5068864;28;20117;-78
2022/10/09 02:50:35;;;;;;;14.13;7.30;;;3.70;99.90;;;;;;5048326;28;20048;-76
2022/10/09 02:53:00;;;;;;;10.80;5.73;;;3.70;99.90;;;;;;5051903;28;20115;-77
2022/10/09 02:55:26;;;;;;;12.47;6.07;;;3.70;99.90;;;;;;5070353;28;20099;-77
2022/10/09 02:57:51;;;;;;;9.27;6.10;;;3.60;99.90;;;;;;5051839;28;20028;-77
2022/10/09 03:00:22;;;;;;;11.47;6.60;;;3.60;99.90;;;;;;5052119;28;20119;-76
2022/10/09 03:02:48;;;;;;;12.43;7.30;;;3.50;99.90;;;;;;5052512;28;20046;-76
2022/10/09 03:05:13;;;;;;;12.07;7.10;;;3.50;99.90;;;;;;5069689;28;20036;-76
2022/10/09 03:07:39;;;;;;;9.90;6.97;;;3.50;99.90;;;;;;5070225;28;20032;-75
2022/10/09 03:10:07;;;;;;;11.23;6.77;;;3.60;99.90;;;;;;5052896;28;20515;-76
2022/10/09 03:12:38;;;;;;;11.93;7.40;;;3.60;99.90;;;;;;5053878;28;20024;-76
2022/10/09 03:15:06;;;;;;;11.27;7.10;;;3.50;99.90;;;;;;5055193;28;20020;-76
2022/10/09 03:17:31;;;;;;;10.67;6.73;;;3.50;99.90;;;;;;5071675;28;20036;-78
2022/10/09 03:19:57;;;;;;;12.03;7.60;;;3.40;99.90;;;;;;5052892;28;20032;-77
2022/10/09 03:22:27;;;;;;;14.90;7.37;;;3.50;99.90;;;;;;5052577;28;20069;-77
2022/10/09 03:24:55;;;;;;;11.63;7.43;;;3.50;99.90;;;;;;5071516;28;20130;-77
2022/10/09 03:27:21;;;;;;;14.47;7.40;;;3.60;99.90;;;;;;5052322;28;20051;-77
2022/10/09 03:29:46;;;;;;;10.90;7.00;;;3.50;99.90;;;;;;5054345;28;20528;-76
2022/10/09 03:32:14;;;;;;;12.70;7.57;;;3.50;99.90;;;;;;5053178;28;20111;-78
2022/10/09 03:34:40;;;;;;;15.33;7.60;;;;;;;;;;5051267;28;20029;-77
2022/10/09 03:37:06;;;;;;;12.77;7.33;;;;;;;;;;5073325;28;20356;-78
2022/10/09 03:39:32;;;;;;;14.10;7.70;;;;;;;;;;5071484;28;20409;-78
2022/10/09 03:42:00;;;;;;;11.07;7.27;;;;;;;;;;5064791;28;20028;-77
2022/10/09 03:44:26;;;;;;;11.83;7.50;;;;;;;;;;5057208;28;20024;-78
2022/10/09 03:46:55;;;;;;;14.73;8.17;;;;;;;;;;5078832;28;20025;-78
2022/10/09 03:49:23;;;;;;;11.60;7.37;;;;;;;;;;5074073;28;20085;-77
2022/10/09 03:51:49;;;;;;;9.87;6.90;;;;;;;;;;5060356;28;20016;-78
2022/10/09 03:54:18;;;;;;;14.07;7.40;;;;;;;;;;5049976;28;20036;-78
2022/10/09 03:56:44;;;;;;;16.27;8.07;;;;;;;;;;5069158;28;20025;-78
2022/10/09 03:59:10;;;;;;;13.27;7.77;;;;;;;;;;5050854;28;20270;-77
2022/10/09 04:01:36;;;;;;;11.57;7.40;;;;;;;;;;5059430;28;20060;-78
2022/10/09 04:04:02;;;;;;;13.03;7.70;;;;;;;;;;5049172;28;20052;-77
2022/10/09 04:06:28;;;;;;;11.83;8.00;;;;;;;;;;5048720;28;20032;-78
2022/10/09 04:08:55;;;;;;;13.20;8.03;;;;;;;;;;5078216;28;20024;-78
2022/10/09 04:11:21;;;;;;;13.50;8.20;;;;;;;;;;5063908;28;20024;-78
2022/10/09 04:13:48;;;;;;;13.23;8.40;;;;;;;;;;5064316;28;20024;-78
2022/10/09 04:16:14;;;;;;;20.03;9.17;;;;;;;;;;5060651;28;20027;-78
2022/10/09 04:18:40;;;;;;;13.40;8.53;;;;;;;;;;5076746;28;20048;-78
2022/10/09 04:21:06;;;;;;;15.80;9.10;;;;;;;;;;5072892;28;20021;-76
2022/10/09 04:23:34;;;;;;;13.50;8.13;;;;;;;;;;5074449;28;20028;-78
2022/10/09 04:26:02;;;;;;;11.20;7.93;;;;;;;;;;5060801;28;20028;-77
2022/10/09 04:28:30;;;;;;;10.73;7.90;;;;;;;;;;5073300;28;20032;-77
2022/10/09 04:30:56;;;;;;;12.17;7.40;;;;;;;;;;5078836;28;20021;-77
2022/10/09 04:33:22;;;;;;;11.53;7.40;;;;;;;;;;5049322;28;20028;-78
2022/10/09 04:35:52;;;;;;;11.00;7.20;;;;;;;;;;5058484;28;20437;-77
2022/10/09 04:38:18;;;;;;;11.00;7.47;;;;;;;;;;5059345;28;20037;-78
2022/10/09 04:40:44;;;;;;;13.03;7.83;;;;;;;;;;5071116;28;20031;-78
2022/10/09 04:43:10;;;;;;;13.50;7.83;;;;;;;;;;5076695;28;20030;-79
2022/10/09 04:45:40;;;;;;;15.63;7.90;;;;;;;;;;5077018;28;20024;-78
2022/10/09 04:48:06;;;;;;;11.33;8.07;;;;;;;;;;5048162;28;20039;-79
2022/10/09 04:50:32;;;;;;;10.33;7.47;;;;;;;;;;5070290;28;20036;-79
2022/10/09 04:52:58;;;;;;;13.73;7.53;;;;;;;;;;5058990;28;20317;-78
2022/10/09 04:55:24;;;;;;;10.47;7.57;;;;;;;;;;5075809;28;20016;-78
2022/10/09 04:57:52;;;;;;;10.97;7.80;;;;;;;;;;5063753;28;20025;-77
2022/10/09 05:00:18;;;;;;;9.47;7.73;;;;;;;;;;5057821;28;20271;-78
2022/10/09 05:02:45;;;;;;;11.07;7.40;;;;;;;;;;5048795;28;20043;-77
2022/10/09 05:05:11;;;;;;;11.20;6.93;;;;;;;;;;5059082;28;20254;-78
2022/10/09 05:07:37;;;;;;;17.70;9.10;;;;;;;;;;5070959;28;20321;-78
2022/10/09 05:10:04;;;;;;;13.10;8.87;;;;;;;;;;5091774;28;20047;-78
2022/10/09 05:12:32;;;;;;;13.43;9.53;;;;;;;;;;5071854;28;20587;-78
2022/10/09 05:14:58;;;;;;;14.13;8.40;;;;;;;;;;5058957;28;20086;-78
2022/10/09 05:17:24;;;;;;;16.60;8.60;;;;;;;;;;5059125;28;20032;-78
2022/10/09 05:19:50;;;;;;;17.97;9.33;;;;;;;;;;5059003;28;20039;-78
2022/10/09 05:22:16;;;;;;;14.50;9.00;;;;;;;;;;5063959;28;20028;-78
2022/10/09 05:24:45;;;;;;;13.97;8.17;;;;;;;;;;5067427;28;20467;-77
2022/10/09 05:27:11;;;;;;;13.60;7.80;;;;;;;;;;5054346;28;20102;-77
2022/10/09 05:29:37;;;;;;;15.87;7.83;;;;;;;;;;5067635;28;20039;-79
2022/10/09 05:32:03;;;;;;;13.20;7.10;;;;;;;;;;5063958;28;20024;-79
2022/10/09 05:34:29;;;;;;;14.33;7.47;;;;;;;;;;5051920;28;20029;-78
2022/10/09 05:38:39;;;;;;;12.50;7.93;;;;;;;;;;5125359;27;20814;-77
2022/10/09 05:41:05;;;;;;;16.37;8.37;;;;;;;;;;5072989;28;20333;-78
2022/10/09 05:43:33;;;;;;;12.57;7.17;;;;;;;;;;5071331;28;20033;-76
2022/10/09 05:46:11;;;;;;;17.03;8.93;;;;;;;;;;5071817;28;20086;-77
2022/10/09 05:48:38;;;;;;;11.63;7.90;;;;;;;;;;5075899;28;20029;-78
2022/10/09 05:51:10;;;;;;;17.23;8.63;;;;;;;;;;5070947;28;20035;-78
2022/10/09 05:53:39;;;;;;;14.57;7.57;;;;;;;;;;5072046;28;20128;-77
2022/10/09 05:56:25;;;;;;;17.37;8.17;;;;;;;;;;5076582;28;20013;-78
2022/10/09 05:58:52;;;;;;;9.97;6.87;;;;;;;;;;5065087;28;20453;-78
2022/10/09 06:01:19;;;;;;;14.83;8.93;;;;;;;;;;5078242;28;20343;-77
2022/10/09 06:03:49;;;;;;;13.13;7.87;;;;;;;;;;5076396;28;20032;-78
2022/10/09 06:06:16;;;;;;;12.33;8.70;;;;;;;;;;5079271;28;20352;-77
2022/10/09 06:08:42;;;;;;;15.00;8.37;;;;;;;;;;5084359;28;20036;-78
2022/10/09 06:11:09;;;;;;;16.23;9.77;;;;;;;;;;5065997;28;20047;-78
2022/10/09 06:13:37;;;;;;;15.13;9.90;;;;;;;;;;5070439;28;20025;-77
2022/10/09 06:16:06;;;;;;;16.90;9.37;;;;;;;;;;5064183;28;20414;-78
2022/10/09 06:18:32;;;;;;;15.27;10.07;;;;;;;;;;5088112;28;20032;-78
2022/10/09 06:21:02;;;;;;;17.50;10.43;;;;;;;;;;5075569;28;20029;-78
2022/10/09 06:23:28;;;;;;;18.77;11.03;;;;;;;;;;5071811;28;20100;-77
2022/10/09 06:25:56;;;;;;;19.40;11.03;;;;;;;;;;5077151;28;20016;-77
2022/10/09 06:28:24;;;;;;;25.50;12.30;;;;;;;;;;5070502;28;20116;-78
2022/10/09 06:30:51;;;;;;;20.73;11.60;;;;;;;;;;5077168;28;20107;-77
2022/10/09 06:33:17;;;;;;;27.67;12.87;;;;;;;;;;5076843;28;20033;-78
2022/10/09 06:35:43;;;;;;;22.40;13.03;;;;;;;;;;5076641;28;20055;-77
2022/10/09 06:38:09;;;;;;;23.33;13.40;;;;;;;;;;5070930;28;20037;-78
2022/10/09 06:40:36;;;;;;;26.07;15.83;;;;;;;;;;5072635;28;20021;-78
2022/10/09 06:43:02;;;;;;;25.57;15.27;;;;;;;;;;5081901;28;20111;-78
2022/10/09 06:45:28;;;;;;;31.20;15.97;;;;;;;;;;5070372;28;20025;-77
2022/10/09 06:47:54;;;;;;;24.17;13.40;;;;;;;;;;5068340;28;20032;-78
2022/10/09 06:50:23;;;;;;;24.50;13.33;;;;;;;;;;5063429;28;20105;-78
2022/10/09 06:52:49;;;;;;;23.93;12.47;;;;;;;;;;5063285;28;20025;-78
2022/10/09 06:55:15;;;;;;;29.07;16.67;;;;;;;;;;5056569;28;20127;-77
2022/10/09 06:57:41;;;;;;;25.77;13.90;;;;;;;;;;5056472;28;20025;-79
2022/10/09 07:00:07;;;;;;;23.47;13.73;;;;;;;;;;5056521;28;20540;-78
2022/10/09 07:02:33;;;;;;;21.80;10.83;;;;;;;;;;5066191;28;20029;-78
2022/10/09 07:04:59;;;;;;;19.40;11.87;;;;;;;;;;5061842;28;20036;-79
2022/10/09 07:07:26;;;;;;;16.20;10.50;;;;;;;;;;5056459;28;20025;-78
2022/10/09 07:09:52;;;;;;;19.13;10.10;;;;;;;;;;5058016;28;20035;-78
2022/10/09 07:12:18;;;;;;;18.80;9.67;;;;;;;;;;5056224;28;20358;-78
2022/10/09 07:14:44;;;;;;;15.73;10.10;;;;;;;;;;5056935;28;20033;-78
2022/10/09 07:17:10;;;;;;;16.70;10.10;;;;;;;;;;5070415;28;20040;-78
2022/10/09 07:19:36;;;;;;;14.20;8.60;;;;;;;;;;5067802;28;20020;-78
2022/10/09 07:22:02;;;;;;;16.33;8.47;;;;;;;;;;5060315;28;20033;-78
2022/10/09 07:24:28;;;;;;;17.60;8.10;;;;;;;;;;5058562;28;20091;-77
2022/10/09 07:26:56;;;;;;;12.53;7.10;;;;;;;;;;5056811;28;20041;-79
2022/10/09 07:29:22;;;;;;;7.90;5.97;;;;;;;;;;5055929;28;20037;-79
2022/10/09 07:31:48;;;;;;;11.70;6.10;;;;;;;;;;5056408;28;20037;-77
2022/10/09 07:34:14;;;;;;;13.50;5.97;;;;;;;;;;5067879;28;20021;-78
2022/10/09 07:36:40;;;;;;;7.50;5.00;;;;;;;;;;5047430;28;20044;-78
2022/10/09 07:39:09;;;;;;;12.00;6.60;;;;;;;;;;5049892;28;20112;-78
2022/10/09 07:41:35;;;;;;;13.80;6.27;;;;;;;;;;5042522;28;20040;-77
2022/10/09 07:44:01;;;;;;;12.40;5.70;;;;;;;;;;5043628;28;20044;-78
2022/10/09 07:46:28;;;;;;;11.37;5.43;;;;;;;;;;5042012;28;20040;-78
2022/10/09 07:48:54;;;;;;;12.73;5.83;;;;;;;;;;5044315;28;20022;-77
2022/10/09 07:51:20;;;;;;;8.70;5.67;;;;;;;;;;5044031;28;20063;-78
2022/10/09 07:53:46;;;;;;;15.73;5.03;;;;;;;;;;5046459;28;20021;-78
2022/10/09 07:56:16;;;;;;;9.30;5.23;;;;;;;;;;5046835;28;20034;-77
2022/10/09 07:58:42;;;;;;;7.23;5.33;;;;;;;;;;5046410;28;20052;-78
2022/10/09 08:01:09;;;;;;;12.63;4.97;;;;;;;;;;5042000;28;20032;-77
2022/10/09 08:03:36;;;;;;;8.70;3.80;;;;;;;;;;5047092;28;21725;-78
2022/10/09 08:06:02;;;;;;;4.50;3.43;;;;;;;;;;5044584;28;21692;-78
2022/10/09 08:08:30;;;;;;;5.47;3.60;;;;;;;;;;5041333;28;20025;-77
2022/10/09 08:10:56;;;;;;;8.20;5.40;;;;;;;;;;5046393;28;21628;-78
2022/10/09 08:13:22;;;;;;;10.43;3.90;;;;;;;;;;5041514;28;20040;-78
2022/10/09 08:15:51;;;;;;;7.27;3.47;;;;;;;;;;5045935;28;20033;-79
2022/10/09 08:18:20;;;;;;;9.13;4.07;;;;;;;;;;5044281;28;20040;-77
2022/10/09 08:20:56;;;;;;;5.23;3.37;;;;;;;;;;5041528;28;20343;-76
2022/10/09 08:23:26;;;;;;;5.37;3.90;;;;;;;;;;5038669;28;20111;-74
2022/10/09 08:25:52;;;;;;;7.97;4.53;;;;;;;;;;5038701;28;20041;-73
2022/10/09 08:28:21;;;;;;;9.57;4.10;;;;;;;;;;5036635;28;20144;-74
2022/10/09 08:30:47;;;;;;;8.03;4.33;;;;;;;;;;5044342;28;20044;-77
2022/10/09 08:33:13;;;;;;;8.37;3.70;;;;;;;;;;5039101;28;20037;-75
2022/10/09 08:35:39;;;;;;;8.67;3.50;;;;;;;;;;5041957;28;20030;-78
2022/10/09 08:38:05;;;;;;;6.40;4.07;;;;;;;;;;5038397;28;20025;-77
2022/10/09 08:40:40;;;;;;;7.20;4.27;;;;;;;;;;5046761;28;20106;-75
2022/10/09 08:43:06;;;;;;;4.97;3.27;;;;;;;;;;5044569;28;20032;-77
2022/10/09 08:45:34;;;;;;;10.53;3.40;;;;;;;;;;5042042;28;20063;-76
2022/10/09 08:48:20;;;;;;;8.23;3.23;;;;;;;;;;5053015;28;20032;-78
2022/10/09 08:50:48;;;;;;;7.57;3.30;;;;;;;;;;5041833;28;20029;-77
2022/10/09 08:53:23;;;;;;;7.07;3.30;;;;;;;;;;5045113;28;20059;-77
2022/10/09 08:55:51;;;;;;;5.47;3.23;;;;;;;;;;5046340;28;20067;-76
2022/10/09 08:58:18;;;;;;;5.10;2.67;;;;;;;;;;5042553;28;20044;-78
2022/10/09 09:00:51;;;;;;;4.87;2.83;;;;;;;;;;5043044;28;20067;-77
2022/10/09 09:03:23;;;;;;;5.07;3.40;;;;;;;;;;5042590;28;20021;-78
2022/10/09 09:06:06;;;;;;;4.82;2.20;;;;;;;;;;5041531;28;20033;-76
2022/10/09 09:08:50;;;;;;;4.72;2.63;;;;;;;;;;5046272;28;21723;-76
2022/10/09 09:11:16;;;;;;;5.03;2.50;;;;;;;;;;5044988;28;20071;-77
2022/10/09 09:14:06;;;;;;;3.37;2.27;;;;;;;;;;5040637;28;20120;-77
2022/10/09 09:16:38;;;;;;;5.10;2.80;;;;;;;;;;5032194;28;20041;-78
2022/10/09 09:19:10;;;;;;;11.43;3.03;;;;;;;;;;5042751;28;20024;-78
2022/10/09 09:21:47;;;;;;;8.35;3.40;;;;;;;;;;5061422;28;20454;-77
2022/10/09 09:24:16;;;;;;;7.13;3.10;;;;;;;;;;5045406;28;20025;-76
2022/10/09 09:26:43;;;;;;;5.87;2.77;;;;;;;;;;5055355;28;20087;-78
2022/10/09 09:29:10;;;;;;;5.73;2.53;;;;;;;;;;5043169;28;20043;-77
2022/10/09 09:31:37;;;;;;;4.60;2.43;;;;;;;;;;5042296;28;20069;-78
2022/10/09 09:34:03;;;;;;;8.93;2.80;;;;;;;;;;5046316;28;20124;-78
2022/10/09 09:36:39;;;;;;;7.37;2.00;;;;;;;;;;5050420;28;20151;-77
2022/10/09 09:39:05;;;;;;;4.03;2.50;;;;;;;;;;5048986;28;20450;-77
2022/10/09 09:41:34;;;;;;;3.23;2.07;;;;;;;;;;5048428;28;20100;-77
2022/10/09 09:44:00;;;;;;;7.23;3.10;;;;;;;;;;5051677;28;20021;-78
2022/10/09 09:46:28;;;;;;;5.20;1.60;;;;;;;;;;5047050;28;20021;-78
2022/10/09 09:48:54;;;;;;;5.53;2.47;;;;;;;;;;5047954;28;20449;-78
2022/10/09 09:51:30;;;;;;;3.13;1.77;;;;;;;;;;5049737;28;20362;-77
2022/10/09 09:53:59;;;;;;;13.93;2.20;;;;;;;;;;5050204;28;20442;-78
2022/10/09 09:56:41;;;;;;;8.80;2.00;;;;;;;;;;5046661;28;20362;-76
2022/10/09 09:59:26;;;;;;;3.88;1.52;;;;;;;;;;5040925;28;20021;-77
2022/10/09 10:02:00;;;;;;;2.17;1.50;;;;;;;;;;5043423;28;20029;-77
2022/10/09 10:04:28;;;;;;;3.07;1.57;;;;;;;;;;5048469;28;20505;-76
2022/10/09 10:06:55;;;;;;;5.67;1.73;;;;;;;;;;5049500;28;20043;-78
2022/10/09 10:09:21;;;;;;;3.80;1.87;;;;;;;;;;5053154;28;20037;-77
2022/10/09 10:11:50;;;;;;;8.57;2.30;;;;;;;;;;5045188;28;20033;-77
2022/10/09 10:14:17;;;;;;;3.53;1.60;;;;;;;;;;5063988;28;20029;-77
2022/10/09 10:16:43;;;;;;;3.97;1.60;;;;;;;;;;5041666;28;20094;-77
2022/10/09 10:19:20;;;;;;;8.53;1.97;;;;;;;;;;5043599;28;20025;-78
2022/10/09 10:21:57;;;;;;;5.20;1.63;;;;;;;;;;5039570;28;20116;-77
2022/10/09 10:24:26;;;;;;;3.23;1.63;;;;;;;;;;5040299;28;20022;-78
2022/10/09 10:27:05;;;;;;;5.07;1.13;;;;;;;;;;5052109;28;20112;-78
2022/10/09 10:29:36;;;;;;;4.33;1.37;;;;;;;;;;5050324;28;20035;-78
2022/10/09 10:32:20;;;;;;;6.50;1.45;;;;;;;;;;5050595;28;20025;-78
2022/10/09 10:34:46;;;;;;;4.03;2.10;;;;;;;;;;5054181;28;20091;-78
2022/10/09 10:37:13;;;;;;;4.10;1.17;;;;;;;;;;5045767;28;20097;-78
2022/10/09 10:39:51;;;;;;;5.73;2.00;;;;;;;;;;5051919;28;20029;-78
2022/10/09 10:42:35;;;;;;;2.63;1.40;;;;;;;;;;5049394;28;20104;-78
2022/10/09 10:45:20;;;;;;;6.47;1.53;;;;;;;;;;5051588;28;20513;-79
2022/10/09 10:47:49;;;;;;;3.03;1.50;;;;;;;;;;5055273;28;20025;-79
2022/10/09 10:50:16;;;;;;;6.37;1.73;;;;;;;;;;5051016;28;20029;-78
2022/10/09 10:53:15;;;;;;;4.33;1.60;;;;;;;;;;5045929;28;20515;-78
2022/10/09 10:55:54;;;;;;;4.20;1.93;;;;;;;;;;5018448;28;20041;-78
2022/10/09 10:58:20;;;;;;;4.93;1.83;;;;;;;;;;5047346;28;20033;-78
2022/10/09 11:01:05;;;;;;;2.77;1.40;;;;;;;;;;5056444;28;20028;-78
2022/10/09 11:03:35;;;;;;;4.17;1.77;;;;;;;;;;5045426;28;20032;-77
2022/10/09 11:06:20;;;;;;;5.33;2.00;;;;;;;;;;5051282;28;20137;-78
2022/10/09 11:08:52;;;;;;;6.43;1.63;;;;;;;;;;5053376;28;20028;-78
2022/10/09 11:11:25;;;;;;;5.28;1.75;;;;;;;;;;5046758;28;20037;-77
2022/10/09 11:13:55;;;;;;;3.40;1.43;;;;;;;;;;5056301;28;20029;-77
2022/10/09 11:16:24;;;;;;;4.90;1.03;;;;;;;;;;5045471;28;20454;-77
2022/10/09 11:19:01;;;;;;;5.53;1.63;;;;;;;;;;5050990;28;20381;-78
2022/10/09 11:21:28;;;;;;;4.47;1.80;;;;;;;;;;5051285;28;20056;-78
2022/10/09 11:24:13;;;;;;;2.67;1.43;;;;;;;;;;5069487;28;20028;-78
2022/10/09 11:26:54;;;;;;;2.37;1.30;;;;;;;;;;5068788;28;20034;-78
2022/10/09 11:29:23;;;;;;;3.27;1.60;;;;;;;;;;5070779;28;20025;-77
2022/10/09 11:32:09;;;;;;;2.33;1.30;;;;;;;;;;5055846;28;20040;-78
2022/10/09 11:34:38;;;;;;;3.60;1.63;;;;;;;;;;5045283;28;20468;-78
2022/10/09 11:37:08;;;;;;;5.10;1.50;;;;;;;;;;5056520;28;20032;-78
2022/10/09 11:39:35;;;;;;;4.13;1.48;;;;;;;;;;5050696;28;20044;-79
2022/10/09 11:42:03;;;;;;;3.72;1.05;;;;;;;;;;5055326;28;20036;-78
2022/10/09 11:44:37;;;;;;;3.50;1.90;;;;;;;;;;5063978;28;20035;-78
2022/10/09 11:47:09;;;;;;;3.70;1.02;;;;;;;;;;5062941;28;20029;-78
2022/10/09 11:49:41;;;;;;;1.90;0.73;;;;;;;;;;5058850;28;20082;-79
2022/10/09 11:52:15;;;;;;;2.25;1.40;;;;;;;;;;5056549;28;20343;-78
2022/10/09 11:57:51;;;;;;;3.05;1.33;;;;;;;;;;4984556;28;20125;-78
2022/10/09 12:00:44;;;;;;;2.28;1.40;;;;;;;;;;4982741;28;20458;-77
2022/10/09 12:03:26;;;;;;;2.20;1.15;;;;;;;;;;4975897;28;20097;-78
2022/10/09 12:05:52;;;;;;;4.05;1.70;;;;;;;;;;4974764;28;20038;-78
2022/10/09 12:08:27;;;;;;;2.40;1.08;;;;;;;;;;4976958;28;20129;-79
2022/10/09 12:11:12;;;;;;;2.88;1.30;;;;;;;;;;4978143;28;20439;-78
2022/10/09 12:13:38;;;;;;;2.28;1.20;;;;;;;;;;4994126;28;20038;-78
2022/10/09 12:16:04;;;;;;;2.60;1.73;;;;;;;;;;4988388;28;20049;-79
2022/10/09 12:18:32;;;;;;;3.67;0.80;;;;;;;;;;4982231;28;20031;-79
2022/10/09 12:21:00;;;;;;;2.63;1.20;;;;;;;;;;4977982;28;20030;-78
2022/10/09 12:23:29;;;;;;;2.25;0.80;;;;;;;;;;4982016;28;20031;-78
2022/10/09 12:25:56;;;;;;;1.98;0.60;;;;;;;;;;4969368;28;20027;-78
2022/10/09 12:28:35;;;;;;;4.60;0.98;;;;;;;;;;4979036;28;20046;-77
2022/10/09 12:31:03;;;;;;;1.63;0.65;;;;;;;;;;4973285;28;20173;-78
2022/10/09 12:33:34;;;;;;;1.77;0.70;;;;;;;;;;4977656;28;20070;-77
2022/10/09 12:36:07;;;;;;;2.40;0.77;;;;;;;;;;5058135;28;20040;-78
2022/10/09 12:38:33;;;;;;;3.63;0.77;;;;;;;;;;5056979;28;20033;-78
2022/10/09 12:41:01;;;;;;;3.00;0.60;;;;;;;;;;5052565;28;20029;-78
2022/10/09 12:43:27;;;;;;;1.50;0.45;;;;;;;;;;5055061;28;20425;-79
2022/10/09 12:45:54;;;;;;;1.50;0.43;;;;;;;;;;5053549;28;20102;-79
2022/10/09 12:48:22;;;;;;;2.38;0.82;;;;;;;;;;5050698;28;20350;-79
2022/10/09 12:50:48;;;;;;;4.05;1.33;;;;;;;;;;5054635;28;20335;-79
2022/10/09 12:53:17;;;;;;;2.10;0.60;;;;;;;;;;5055223;28;20028;-78
2022/10/09 12:55:46;;;;;;;3.45;0.93;;;;;;;;;;5054769;28;20025;-78
2022/10/09 12:58:18;;;;;;;1.67;0.70;;;;;;;;;;5060897;28;20025;-78
2022/10/09 13:00:45;;;;;;;2.13;0.90;;;;;;;;;;5053999;28;20082;-79
2022/10/09 13:03:24;;;;;;;3.25;0.90;;;21.40;79.80;;;;;;5055548;28;20033;-78
2022/10/09 13:05:50;;;;;;;5.07;0.80;;;21.20;79.40;;;;;;5053018;28;20033;-78
2022/10/09 13:08:32;;;;;;;3.22;0.60;;;21.70;79.60;;;;;;5070084;28;20052;-77
2022/10/09 13:11:26;;;;;;;3.97;0.52;;;22.30;77.50;;;;;;5062526;28;20111;-77
2022/10/09 13:13:54;;;;;;;4.05;0.82;;;22.60;72.70;;;;;;5059866;28;20020;-77
2022/10/09 13:16:21;;;;;;;0.93;0.60;;;22.50;72.00;;;;;;5053324;28;20057;-77
2022/10/09 13:18:57;;;;;;;2.58;0.75;;;22.50;68.70;;;;;;5053221;28;20036;-77
2022/10/09 13:21:28;;;;;;;2.03;0.88;;;22.50;67.50;;;;;;5060477;28;20017;-78
2022/10/09 13:23:55;;;;;;;2.75;0.57;;;22.50;66.20;;;;;;5057239;28;20016;-78
2022/10/09 13:26:27;;;;;;;3.63;1.48;;;23.00;68.10;;;;;;5057104;28;20036;-78
2022/10/09 13:28:54;;;;;;;3.13;1.35;;;23.40;64.60;;;;;;5054303;28;20056;-77
2022/10/09 13:31:22;;;;;;;1.13;0.60;;;23.50;64.10;;;;;;5052899;28;20051;-77
2022/10/09 13:33:48;;;;;;;3.35;0.98;;;23.50;64.80;;;;;;5054390;28;20029;-77
2022/10/09 13:36:15;;;;;;;3.83;1.25;;;23.60;64.00;;;;;;5047109;28;20033;-75
2022/10/09 13:38:41;;;;;;;2.35;0.95;;;23.60;64.20;;;;;;5051498;28;20038;-74
2022/10/09 13:41:12;;;;;;;1.88;0.75;;;24.00;62.30;;;;;;5034199;28;20439;-77
2022/10/09 13:43:38;;;;;;;2.72;1.00;;;24.30;62.60;;;;;;5051481;28;20036;-77
2022/10/09 13:46:03;;;;;;;5.38;1.05;;;24.50;61.10;;;;;;5034813;28;20043;-76
2022/10/09 13:48:30;;;;;;;3.28;1.30;;;24.40;60.50;;;;;;5037163;28;20036;-76
2022/10/09 13:50:58;;;;;;;1.00;0.70;;;25.00;61.40;;;;;;5040061;28;20037;-76
2022/10/09 13:53:23;;;;;;;1.27;0.68;;;25.30;60.50;;;;;;5035413;28;20033;-75
2022/10/09 13:55:52;;;;;;;1.92;1.08;;;25.40;59.90;;;;;;5040913;28;20099;-79
2022/10/09 13:58:21;;;;;;;4.13;1.20;;;25.70;59.40;;;;;;5056350;28;20029;-77
2022/10/09 14:00:47;;;;;;;2.40;1.13;;;25.60;59.00;;;;;;5046880;28;20025;-78
2022/10/09 14:03:13;;;;;;;6.25;1.98;;;26.10;58.40;;;;;;5046602;28;20020;-77
2022/10/09 14:05:39;;;;;;;2.08;1.02;;;26.60;57.10;;;;;;5047659;28;20025;-78
2022/10/09 14:08:05;;;;;;;3.35;0.70;;;27.10;57.80;;;;;;5081777;28;20086;-78
2022/10/09 14:10:36;;;;;;;1.77;0.80;;;26.70;56.60;;;;;;5049767;28;20116;-79
2022/10/09 14:13:01;;;;;;;2.92;1.20;;;26.30;55.20;;;;;;5049234;28;20033;-78
2022/10/09 14:15:27;;;;;;;4.20;1.67;;;26.80;56.70;;;;;;5045251;28;20036;-78